Time;durP1;ratioP1;P1;durP2;ratioP2;P2;SDS_P1;SDS_P2;PMS_P1;PMS_P2;Temp;Humidity;BMP_temperature;BMP_pressure;BME280_temperature;BME280_humidity;BME280_pressure;Samples;Min_cycle;Max_cycle;Signal;HPM_P1;HPM_P2
2023/07/01 00:00:27;;;;;;;9.23;2.55;;;18.30;99.90;;;;;;4864593;29;20235;-69
2023/07/01 00:02:53;;;;;;;9.88;2.38;;;18.40;99.90;;;;;;4886511;29;20063;-70
2023/07/01 00:05:20;;;;;;;5.97;2.17;;;18.30;99.90;;;;;;4895827;29;20048;-70
2023/07/01 00:07:45;;;;;;;7.15;2.47;;;18.40;99.90;;;;;;4883115;29;20068;-70
2023/07/01 00:10:11;;;;;;;6.90;1.77;;;18.40;99.90;;;;;;4914988;29;20059;-70
2023/07/01 00:12:37;;;;;;;6.22;1.95;;;18.50;99.90;;;;;;4915226;29;20044;-70
2023/07/01 00:15:03;;;;;;;7.97;2.08;;;18.40;99.90;;;;;;4915120;29;20495;-69
2023/07/01 00:17:29;;;;;;;8.95;2.30;;;18.40;99.90;;;;;;4915354;29;20127;-70
2023/07/01 00:19:55;;;;;;;7.50;2.00;;;18.50;99.90;;;;;;4914959;29;20127;-70
2023/07/01 00:22:20;;;;;;;6.93;2.22;;;18.50;99.90;;;;;;4914936;29;20060;-70
2023/07/01 00:24:46;;;;;;;6.43;2.58;;;18.50;99.90;;;;;;4897624;29;20064;-70
2023/07/01 00:27:12;;;;;;;9.10;3.25;;;18.40;99.90;;;;;;4915149;29;20056;-70
2023/07/01 00:29:38;;;;;;;4.90;2.25;;;18.50;99.90;;;;;;4914727;29;20056;-70
2023/07/01 00:32:04;;;;;;;6.50;2.15;;;18.40;99.90;;;;;;4914747;29;20048;-70
2023/07/01 00:34:29;;;;;;;8.05;2.20;;;18.50;99.90;;;;;;4915036;29;20111;-70
2023/07/01 00:36:55;;;;;;;4.47;2.13;;;18.40;99.90;;;;;;4914849;29;20147;-70
2023/07/01 00:39:21;;;;;;;13.18;2.22;;;18.40;99.90;;;;;;4914559;29;20048;-70
2023/07/01 00:41:53;;;;;;;7.25;1.98;;;18.40;99.90;;;;;;4914843;29;20056;-70
2023/07/01 00:44:19;;;;;;;;;;;18.40;99.90;;;;;;4897858;29;20538;-70
2023/07/01 00:46:45;;;;;;;6.50;2.60;;;18.40;99.90;;;;;;4897574;29;19923;-70
2023/07/01 00:49:11;;;;;;;6.68;2.35;;;18.40;99.90;;;;;;4897473;29;20457;-70
2023/07/01 00:51:38;;;;;;;5.78;2.22;;;18.40;99.90;;;;;;4897676;29;20064;-70
2023/07/01 00:54:04;;;;;;;9.88;2.58;;;18.30;99.90;;;;;;4897418;29;20603;-70
2023/07/01 00:56:30;;;;;;;11.38;2.50;;;18.40;99.90;;;;;;4897420;29;20055;-70
2023/07/01 00:58:56;;;;;;;4.63;2.13;;;18.40;99.90;;;;;;4897315;29;20131;-70
2023/07/01 01:01:28;;;;;;;10.25;2.47;;;18.40;99.90;;;;;;4914612;29;20464;-70
2023/07/01 01:04:03;;;;;;;4.53;2.40;;;18.40;99.90;;;;;;4897624;29;20074;-70
2023/07/01 01:06:52;;;;;;;5.45;2.15;;;18.40;99.90;;;;;;4914295;29;20056;-70
2023/07/01 01:09:43;;;;;;;4.43;1.98;;;18.50;99.90;;;;;;4914268;29;20095;-70
2023/07/01 01:12:11;;;;;;;5.45;2.05;;;18.50;99.90;;;;;;4897024;29;20135;-70
2023/07/01 01:14:39;;;;;;;6.28;2.13;;;18.50;99.90;;;;;;4897157;29;20062;-70
2023/07/01 01:17:13;;;;;;;5.93;2.05;;;18.50;99.90;;;;;;4920292;29;20048;-70
2023/07/01 01:19:44;;;;;;;6.10;2.00;;;18.50;99.90;;;;;;4920742;29;20048;-70
2023/07/01 01:22:09;;;;;;;6.18;2.17;;;18.50;99.90;;;;;;4903183;29;20078;-70
2023/07/01 01:24:40;;;;;;;7.35;2.38;;;18.50;99.90;;;;;;4920563;29;20048;-70
2023/07/01 01:27:13;;;;;;;8.00;2.67;;;18.50;99.90;;;;;;4903659;29;20052;-70
2023/07/01 01:29:39;;;;;;;9.80;2.20;;;18.40;99.90;;;;;;4920382;29;20047;-70
2023/07/01 01:32:07;;;;;;;6.65;1.73;;;18.50;99.90;;;;;;4920384;29;20052;-70
2023/07/01 01:34:34;;;;;;;6.18;2.03;;;18.50;99.90;;;;;;4920626;29;20090;-70
2023/07/01 01:37:05;;;;;;;5.85;2.03;;;18.50;99.90;;;;;;4903098;29;20047;-70
2023/07/01 01:39:35;;;;;;;7.65;2.22;;;18.50;99.90;;;;;;4903476;29;20054;-70
2023/07/01 01:42:21;;;;;;;4.72;2.35;;;18.50;99.90;;;;;;4912817;29;20131;-70
2023/07/01 01:44:52;;;;;;;9.50;2.42;;;18.50;99.90;;;;;;4882337;29;20070;-70
2023/07/01 01:47:20;;;;;;;8.57;2.65;;;18.50;99.90;;;;;;4866288;29;20119;-70
2023/07/01 01:49:56;;;;;;;8.45;2.20;;;18.50;99.90;;;;;;4890163;29;20116;-70
2023/07/01 01:52:23;;;;;;;6.60;2.47;;;18.50;99.90;;;;;;4884554;29;20534;-70
2023/07/01 01:54:53;;;;;;;6.63;2.40;;;18.50;99.90;;;;;;4867724;29;20053;-70
2023/07/01 01:57:19;;;;;;;5.75;2.45;;;18.40;99.90;;;;;;4865653;29;20129;-70
2023/07/01 01:59:46;;;;;;;7.88;2.40;;;18.50;99.90;;;;;;4865804;29;20107;-70
2023/07/01 02:02:12;;;;;;;5.15;2.65;;;18.40;99.90;;;;;;4866083;29;20501;-70
2023/07/01 02:04:38;;;;;;;5.75;2.25;;;18.40;99.90;;;;;;4865813;29;20063;-70
2023/07/01 02:07:04;;;;;;;5.88;2.13;;;18.40;99.90;;;;;;4865808;29;20093;-70
2023/07/01 02:09:29;;;;;;;6.82;2.78;;;18.40;99.90;;;;;;4882611;29;20110;-70
2023/07/01 02:11:55;;;;;;;4.70;2.42;;;18.40;99.90;;;;;;4882137;29;20056;-70
2023/07/01 02:14:22;;;;;;;7.15;2.85;;;18.30;99.90;;;;;;4882717;29;20048;-70
2023/07/01 02:16:49;;;;;;;8.13;2.38;;;18.30;99.90;;;;;;4886748;29;20063;-70
2023/07/01 02:19:14;;;;;;;6.72;2.50;;;18.30;99.90;;;;;;4884403;29;20413;-70
2023/07/01 02:21:40;;;;;;;6.55;2.85;;;18.30;99.90;;;;;;4884278;29;20060;-70
2023/07/01 02:24:06;;;;;;;3.80;2.40;;;18.30;99.90;;;;;;4884530;29;20068;-70
2023/07/01 02:26:32;;;;;;;9.77;2.58;;;18.20;99.90;;;;;;4883210;29;20424;-70
2023/07/01 02:28:57;;;;;;;6.30;2.50;;;18.20;99.90;;;;;;4880800;29;20049;-70
2023/07/01 02:31:23;;;;;;;10.02;2.70;;;18.20;99.90;;;;;;4882530;29;20060;-69
2023/07/01 02:33:50;;;;;;;8.23;2.53;;;18.20;99.90;;;;;;4898018;29;20052;-70
2023/07/01 02:36:16;;;;;;;7.20;2.30;;;18.10;99.90;;;;;;4898348;29;20060;-70
2023/07/01 02:38:41;;;;;;;7.82;2.75;;;18.00;99.90;;;;;;4898149;29;20091;-71
2023/07/01 02:41:07;;;;;;;5.35;2.60;;;18.10;99.90;;;;;;4897805;29;20060;-70
2023/07/01 02:43:33;;;;;;;5.28;2.30;;;18.10;99.90;;;;;;4898158;29;20048;-70
2023/07/01 02:45:59;;;;;;;6.68;3.47;;;18.00;99.90;;;;;;4897978;29;20055;-70
2023/07/01 02:48:25;;;;;;;5.35;2.38;;;18.00;99.90;;;;;;4880691;29;20416;-70
2023/07/01 02:50:50;;;;;;;6.65;2.70;;;18.00;99.90;;;;;;4880804;29;20136;-70
2023/07/01 02:53:18;;;;;;;6.70;2.47;;;18.00;99.90;;;;;;4880816;29;20060;-70
2023/07/01 02:55:44;;;;;;;6.28;2.45;;;18.00;99.90;;;;;;4880598;29;20084;-70
2023/07/01 02:58:09;;;;;;;7.75;2.42;;;18.00;99.90;;;;;;4897732;29;20056;-70
2023/07/01 03:00:35;;;;;;;5.75;2.45;;;17.90;99.90;;;;;;4880604;29;20057;-70
2023/07/01 03:03:07;;;;;;;5.22;2.28;;;17.90;99.90;;;;;;4880518;29;20434;-70
2023/07/01 03:05:36;;;;;;;7.07;2.45;;;17.90;99.90;;;;;;4897611;29;20059;-70
2023/07/01 03:08:03;;;;;;;3.45;2.67;;;17.90;99.90;;;;;;4880714;29;20060;-70
2023/07/01 03:10:28;;;;;;;5.22;2.47;;;18.00;99.90;;;;;;4880430;29;20139;-70
2023/07/01 03:12:55;;;;;;;3.97;2.40;;;17.90;99.90;;;;;;4880172;29;20481;-70
2023/07/01 03:15:21;;;;;;;5.32;2.40;;;17.90;99.90;;;;;;4897561;29;20045;-70
2023/07/01 03:17:50;;;;;;;6.95;2.75;;;17.90;99.90;;;;;;4897320;29;20532;-70
2023/07/01 03:20:25;;;;;;;3.38;2.22;;;17.90;99.90;;;;;;4880601;29;20420;-70
2023/07/01 03:22:56;;;;;;;5.55;2.72;;;17.80;99.90;;;;;;4880106;29;20053;-70
2023/07/01 03:25:26;;;;;;;6.97;2.60;;;17.90;99.90;;;;;;4897227;29;20094;-70
2023/07/01 03:27:52;;;;;;;4.03;2.45;;;17.80;99.90;;;;;;4897177;29;20088;-70
2023/07/01 03:30:18;;;;;;;6.05;2.30;;;17.80;99.90;;;;;;4880433;29;20055;-70
2023/07/01 03:32:46;;;;;;;9.20;2.80;;;17.80;99.90;;;;;;4896758;29;20057;-71
2023/07/01 03:35:12;;;;;;;8.60;2.63;;;17.80;99.90;;;;;;4896948;29;20057;-70
2023/07/01 03:37:39;;;;;;;4.60;2.45;;;17.90;99.90;;;;;;4897303;29;20131;-70
2023/07/01 03:40:10;;;;;;;6.90;1.95;;;17.90;99.90;;;;;;4896974;29;20080;-70
2023/07/01 03:42:37;;;;;;;5.53;3.00;;;18.00;99.90;;;;;;4897304;29;20060;-70
2023/07/01 03:45:05;;;;;;;6.88;2.22;;;18.00;99.90;;;;;;4880563;29;20148;-70
2023/07/01 03:47:31;;;;;;;3.28;1.88;;;17.90;99.90;;;;;;4879975;29;20067;-70
2023/07/01 03:49:57;;;;;;;5.82;2.35;;;17.90;99.90;;;;;;4879937;29;20059;-70
2023/07/01 03:52:23;;;;;;;9.40;2.45;;;18.00;99.90;;;;;;4896515;29;20421;-70
2023/07/01 03:54:48;;;;;;;8.32;2.70;;;17.90;99.90;;;;;;4896659;29;20048;-70
2023/07/01 03:57:15;;;;;;;6.60;2.78;;;17.80;99.90;;;;;;4896528;29;20084;-70
2023/07/01 03:59:41;;;;;;;8.13;2.88;;;17.80;99.90;;;;;;4896501;29;20405;-70
2023/07/01 04:02:07;;;;;;;9.13;2.58;;;17.60;99.90;;;;;;4896138;29;20063;-69
2023/07/01 04:04:33;;;;;;;4.57;2.55;;;17.60;99.90;;;;;;4896298;29;20060;-71
2023/07/01 04:06:58;;;;;;;6.68;3.05;;;17.50;99.90;;;;;;4879293;29;20061;-71
2023/07/01 04:09:25;;;;;;;5.60;2.53;;;17.50;99.90;;;;;;4896270;29;20122;-71
2023/07/01 04:11:52;;;;;;;5.15;2.78;;;17.50;99.90;;;;;;4879001;29;20057;-71
2023/07/01 04:14:17;;;;;;;7.70;2.88;;;17.40;99.90;;;;;;4879286;29;20184;-71
2023/07/01 04:16:44;;;;;;;3.13;2.55;;;17.50;99.90;;;;;;4895800;29;20135;-71
2023/07/01 04:19:13;;;;;;;6.15;2.75;;;17.30;99.90;;;;;;4896273;29;20057;-71
2023/07/01 04:21:39;;;;;;;6.70;2.35;;;17.30;99.90;;;;;;4896082;29;20135;-71
2023/07/01 04:24:07;;;;;;;7.63;2.47;;;17.30;99.90;;;;;;4896361;29;20051;-72
2023/07/01 04:26:36;;;;;;;6.72;2.95;;;17.20;99.90;;;;;;4879165;29;20057;-72
2023/07/01 04:29:02;;;;;;;5.53;2.88;;;17.10;99.90;;;;;;4896434;29;20101;-74
2023/07/01 04:31:28;;;;;;;5.75;2.70;;;17.10;99.90;;;;;;4878963;29;20087;-74
2023/07/01 04:33:55;;;;;;;5.15;2.25;;;17.10;99.90;;;;;;4879343;29;20215;-73
2023/07/01 04:36:21;;;;;;;8.73;3.35;;;17.00;99.90;;;;;;4879281;29;20052;-75
2023/07/01 04:38:47;;;;;;;6.35;2.60;;;17.00;99.90;;;;;;4896560;29;20067;-76
2023/07/01 04:41:13;;;;;;;6.38;2.63;;;17.00;99.90;;;;;;4879211;29;20523;-75
2023/07/01 04:43:39;;;;;;;7.45;2.97;;;17.00;99.90;;;;;;4879110;29;20068;-75
2023/07/01 04:46:05;;;;;;;5.32;2.75;;;17.00;99.90;;;;;;4895904;29;20051;-74
2023/07/01 04:48:30;;;;;;;4.43;2.88;;;17.00;99.90;;;;;;4896272;29;20049;-75
2023/07/01 04:50:56;;;;;;;6.28;2.55;;;16.90;99.90;;;;;;4895632;29;20080;-74
2023/07/01 04:53:23;;;;;;;7.05;2.70;;;16.90;99.90;;;;;;4896368;29;20080;-74
2023/07/01 04:55:48;;;;;;;7.70;3.20;;;16.90;99.90;;;;;;4895902;29;20056;-73
2023/07/01 04:58:14;;;;;;;4.10;2.55;;;16.90;99.90;;;;;;4879057;29;20130;-73
2023/07/01 05:00:40;;;;;;;3.60;2.75;;;16.90;99.90;;;;;;4895703;29;20513;-72
2023/07/01 05:03:06;;;;;;;6.53;2.88;;;16.90;99.90;;;;;;4895955;29;20135;-73
2023/07/01 05:05:31;;;;;;;5.03;2.45;;;16.80;99.90;;;;;;4895763;29;20383;-73
2023/07/01 05:07:57;;;;;;;6.90;3.10;;;16.80;99.90;;;;;;4895639;29;20051;-72
2023/07/01 05:10:23;;;;;;;6.07;3.28;;;16.90;99.90;;;;;;4895740;29;20060;-72
2023/07/01 05:12:50;;;;;;;5.75;2.80;;;16.90;99.90;;;;;;4895454;29;20140;-72
2023/07/01 05:15:15;;;;;;;4.93;2.80;;;16.90;99.90;;;;;;4878677;29;20102;-71
2023/07/01 05:17:42;;;;;;;8.75;2.80;;;16.90;99.90;;;;;;4895847;29;20071;-72
2023/07/01 05:20:09;;;;;;;5.03;2.65;;;16.90;99.90;;;;;;4895698;29;20101;-71
2023/07/01 05:22:35;;;;;;;9.68;3.47;;;16.90;99.90;;;;;;4878563;29;20140;-72
2023/07/01 05:25:02;;;;;;;6.03;2.70;;;16.90;99.90;;;;;;4895522;29;20442;-71
2023/07/01 05:27:27;;;;;;;5.10;3.20;;;16.90;99.90;;;;;;4895166;29;20539;-71
2023/07/01 05:29:53;;;;;;;6.65;3.15;;;17.00;99.90;;;;;;4895573;29;20048;-72
2023/07/01 05:32:19;;;;;;;6.50;2.78;;;17.00;99.90;;;;;;4878444;29;20056;-72
2023/07/01 05:34:44;;;;;;;5.20;3.20;;;17.00;99.90;;;;;;4895505;29;20139;-72
2023/07/01 05:37:10;;;;;;;6.88;2.85;;;17.00;99.90;;;;;;4878507;29;20048;-72
2023/07/01 05:39:36;;;;;;;5.30;2.80;;;17.10;99.90;;;;;;4892512;29;20057;-72
2023/07/01 05:42:02;;;;;;;4.95;2.90;;;17.10;99.90;;;;;;4876482;29;20085;-72
2023/07/01 05:44:28;;;;;;;6.03;2.90;;;17.10;99.90;;;;;;4885800;29;20103;-71
2023/07/01 05:46:54;;;;;;;6.07;3.42;;;17.20;99.90;;;;;;4895200;29;20049;-72
2023/07/01 05:49:19;;;;;;;4.93;2.80;;;17.20;99.90;;;;;;4895443;29;20052;-72
2023/07/01 05:51:46;;;;;;;8.38;3.10;;;17.10;99.90;;;;;;4872761;29;20517;-72
2023/07/01 05:54:12;;;;;;;9.07;3.28;;;17.20;99.90;;;;;;4876485;29;20053;-72
2023/07/01 05:56:38;;;;;;;5.10;2.70;;;17.20;99.90;;;;;;4876377;29;20446;-72
2023/07/01 05:59:03;;;;;;;4.88;3.05;;;17.20;99.90;;;;;;4859650;29;20575;-72
2023/07/01 06:01:29;;;;;;;7.50;3.28;;;17.20;99.90;;;;;;4876440;29;20056;-72
2023/07/01 06:03:55;;;;;;;9.20;3.30;;;17.20;99.90;;;;;;4862551;29;20095;-72
2023/07/01 06:06:21;;;;;;;4.00;3.08;;;17.20;99.90;;;;;;4879859;29;20056;-72
2023/07/01 06:08:47;;;;;;;5.88;3.05;;;17.20;99.90;;;;;;4897764;29;20060;-72
2023/07/01 06:11:13;;;;;;;4.88;3.35;;;17.20;99.90;;;;;;4898536;29;20056;-72
2023/07/01 06:13:45;;;;;;;5.53;2.90;;;17.20;99.90;;;;;;4881756;29;20052;-77
2023/07/01 06:16:10;;;;;;;4.88;3.13;;;17.30;99.90;;;;;;4881534;29;20052;-76
2023/07/01 06:18:36;;;;;;;7.00;3.30;;;17.30;99.90;;;;;;4898732;29;20378;-76
2023/07/01 06:21:06;;;;;;;7.68;3.38;;;17.20;99.90;;;;;;4898430;29;20056;-76
2023/07/01 06:23:32;;;;;;;5.05;3.40;;;17.30;99.90;;;;;;4898327;29;20064;-75
2023/07/01 06:25:58;;;;;;;8.73;3.88;;;17.30;99.90;;;;;;4898545;29;20121;-75
2023/07/01 06:28:24;;;;;;;6.07;3.40;;;17.30;99.90;;;;;;4898495;29;20053;-75
2023/07/01 06:30:50;;;;;;;7.15;3.50;;;17.30;99.90;;;;;;4902335;29;20065;-76
2023/07/01 06:33:15;;;;;;;9.55;3.78;;;17.20;99.90;;;;;;4897219;29;20156;-76
2023/07/01 06:35:43;;;;;;;5.90;3.70;;;17.30;99.90;;;;;;4886245;29;20063;-78
2023/07/01 06:38:09;;;;;;;7.38;4.03;;;17.30;99.90;;;;;;4902932;29;20049;-77
2023/07/01 06:40:35;;;;;;;7.95;3.72;;;17.30;99.90;;;;;;4898758;29;20051;-77
2023/07/01 06:43:02;;;;;;;5.03;3.80;;;17.20;99.90;;;;;;4902327;29;20056;-78
2023/07/01 06:45:29;;;;;;;5.20;3.38;;;17.30;99.90;;;;;;4899374;29;20420;-79
2023/07/01 06:47:55;;;;;;;6.93;3.60;;;17.30;99.90;;;;;;4882211;29;20052;-78
2023/07/01 06:50:21;;;;;;;5.85;3.67;;;17.30;99.90;;;;;;4882017;29;20140;-78
2023/07/01 06:52:47;;;;;;;7.90;4.70;;;17.20;99.90;;;;;;4882093;29;20172;-78
2023/07/01 06:55:15;;;;;;;7.65;3.83;;;17.20;99.90;;;;;;4882799;29;20057;-78
2023/07/01 06:57:44;;;;;;;6.13;4.20;;;17.30;99.90;;;;;;4882344;29;20064;-77
2023/07/01 07:00:12;;;;;;;6.10;4.00;;;17.30;99.90;;;;;;4881941;29;20067;-78
2023/07/01 07:02:39;;;;;;;7.07;3.90;;;17.20;99.90;;;;;;4881857;29;20048;-78
2023/07/01 07:05:06;;;;;;;8.18;4.55;;;17.20;99.90;;;;;;4882058;29;20073;-77
2023/07/01 07:07:32;;;;;;;5.25;4.25;;;17.20;99.90;;;;;;4898599;29;20045;-77
2023/07/01 07:09:58;;;;;;;5.90;4.10;;;17.20;99.90;;;;;;4898444;29;20048;-77
2023/07/01 07:12:25;;;;;;;9.40;4.63;;;17.20;99.90;;;;;;4881147;29;20048;-77
2023/07/01 07:14:51;;;;;;;5.25;4.22;;;17.20;99.90;;;;;;4881028;29;20057;-77
2023/07/01 07:17:16;;;;;;;6.50;4.03;;;17.20;99.90;;;;;;4881306;29;20055;-77
2023/07/01 07:19:42;;;;;;;5.82;4.38;;;17.30;99.90;;;;;;4881457;29;20048;-76
2023/07/01 07:22:08;;;;;;;5.88;3.88;;;17.20;99.90;;;;;;4870930;29;20061;-81
2023/07/01 07:24:34;;;;;;;6.45;3.92;;;17.30;99.90;;;;;;4861311;29;20118;-79
2023/07/01 07:27:01;;;;;;;6.32;3.88;;;17.30;99.90;;;;;;4861064;29;20391;-79
2023/07/01 07:29:28;;;;;;;6.20;4.00;;;17.20;99.90;;;;;;4860318;29;20417;-80
2023/07/01 07:31:55;;;;;;;6.72;3.85;;;17.30;99.90;;;;;;4860208;29;20049;-80
2023/07/01 07:34:21;;;;;;;6.32;3.90;;;17.30;99.90;;;;;;4859918;29;20771;-80
2023/07/01 07:36:47;;;;;;;4.70;3.97;;;17.30;99.90;;;;;;4859815;29;20060;-81
2023/07/01 07:39:13;;;;;;;6.13;4.10;;;17.30;99.90;;;;;;4859661;29;20058;-78
2023/07/01 07:41:43;;;;;;;5.90;4.07;;;17.40;99.90;;;;;;4861367;29;20121;-80
2023/07/01 07:44:09;;;;;;;5.47;3.83;;;17.20;99.90;;;;;;4859920;29;20057;-80
2023/07/01 07:46:35;;;;;;;7.13;4.07;;;17.40;99.90;;;;;;4859846;29;20060;-80
2023/07/01 07:49:01;;;;;;;6.75;4.13;;;17.40;99.90;;;;;;4844399;29;20079;-78
2023/07/01 07:51:27;;;;;;;9.18;4.28;;;17.40;99.90;;;;;;4859213;29;20117;-75
2023/07/01 07:53:53;;;;;;;7.47;4.45;;;17.40;99.90;;;;;;4858448;29;20073;-75
2023/07/01 07:56:19;;;;;;;6.53;4.00;;;17.40;99.90;;;;;;4858563;29;20049;-75
2023/07/01 07:58:45;;;;;;;6.47;4.28;;;17.40;99.90;;;;;;4858423;29;20121;-74
2023/07/01 08:01:11;;;;;;;6.40;4.15;;;17.50;99.90;;;;;;4858498;29;20045;-75
2023/07/01 08:03:37;;;;;;;6.00;4.20;;;17.50;99.90;;;;;;4859428;29;20056;-71
2023/07/01 08:06:03;;;;;;;4.60;3.28;;;17.50;99.90;;;;;;4859671;29;20045;-71
2023/07/01 08:08:28;;;;;;;6.72;3.78;;;17.50;99.90;;;;;;4858865;29;20064;-71
2023/07/01 08:10:54;;;;;;;4.50;4.10;;;17.50;99.90;;;;;;4859461;29;20069;-71
2023/07/01 08:13:20;;;;;;;5.03;3.85;;;17.50;99.90;;;;;;4858953;29;20402;-71
2023/07/01 08:15:45;;;;;;;4.78;3.53;;;17.50;99.90;;;;;;4857772;29;20078;-71
2023/07/01 08:18:11;;;;;;;6.10;3.75;;;17.60;99.90;;;;;;4859122;29;20057;-71
2023/07/01 08:20:38;;;;;;;5.68;4.00;;;17.60;99.90;;;;;;4859378;29;20073;-71
2023/07/01 08:23:04;;;;;;;5.88;4.07;;;17.60;99.90;;;;;;4887286;29;20131;-71
2023/07/01 08:25:30;;;;;;;5.18;4.13;;;17.70;99.90;;;;;;4895731;29;20056;-72
2023/07/01 08:27:58;;;;;;;6.15;3.72;;;17.70;99.90;;;;;;4879691;29;20496;-75
2023/07/01 08:30:23;;;;;;;4.78;4.00;;;17.60;99.90;;;;;;4879195;29;20060;-75
2023/07/01 08:32:49;;;;;;;5.10;4.60;;;17.60;99.90;;;;;;4879188;29;20393;-75
2023/07/01 08:35:15;;;;;;;4.30;3.90;;;17.70;99.90;;;;;;4896474;29;20048;-71
2023/07/01 08:37:40;;;;;;;7.05;4.32;;;17.70;99.90;;;;;;4895974;29;20107;-79
2023/07/01 08:40:07;;;;;;;5.20;4.28;;;17.80;99.90;;;;;;4896610;29;20068;-75
2023/07/01 08:42:55;;;;;;;6.43;4.10;;;17.70;99.90;;;;;;4878247;29;20060;-75
2023/07/01 08:45:21;;;;;;;6.03;4.13;;;17.70;99.90;;;;;;4893398;29;20123;-75
2023/07/01 08:47:49;;;;;;;5.50;4.10;;;17.70;99.90;;;;;;4886981;29;20048;-75
2023/07/01 08:50:19;;;;;;;5.35;3.78;;;17.80;99.90;;;;;;4885918;29;20417;-75
2023/07/01 08:52:54;;;;;;;4.43;4.00;;;17.80;99.90;;;;;;4868288;29;20464;-73
2023/07/01 08:55:20;;;;;;;4.95;4.07;;;17.80;99.90;;;;;;4866289;29;20060;-72
2023/07/01 08:57:45;;;;;;;4.85;3.97;;;17.90;99.90;;;;;;4877347;29;20520;-72
2023/07/01 09:00:14;;;;;;;4.82;3.88;;;17.90;99.90;;;;;;4877201;29;20052;-72
2023/07/01 09:02:41;;;;;;;5.25;4.20;;;17.80;99.90;;;;;;4876957;29;20121;-72
2023/07/01 09:05:07;;;;;;;5.72;4.43;;;17.80;99.90;;;;;;4876955;29;20065;-72
2023/07/01 09:07:33;;;;;;;7.68;4.22;;;17.90;99.90;;;;;;4877228;29;20057;-72
2023/07/01 09:10:03;;;;;;;4.90;4.07;;;17.90;99.90;;;;;;4860496;29;20048;-72
2023/07/01 09:12:31;;;;;;;4.97;4.28;;;17.90;99.90;;;;;;4876916;29;20117;-72
2023/07/01 09:14:58;;;;;;;4.93;4.32;;;17.90;99.90;;;;;;4877110;29;20053;-72
2023/07/01 09:17:31;;;;;;;4.35;3.95;;;18.00;99.90;;;;;;4860218;29;20061;-71
2023/07/01 09:20:04;;;;;;;5.05;4.55;;;17.90;99.90;;;;;;4876674;29;20051;-72
2023/07/01 09:22:30;;;;;;;4.85;4.18;;;18.00;99.90;;;;;;4876854;29;20056;-72
2023/07/01 09:24:56;;;;;;;8.75;4.35;;;17.90;99.90;;;;;;4881842;29;20131;-72
2023/07/01 09:27:22;;;;;;;6.45;5.18;;;17.90;99.90;;;;;;4867572;29;20061;-71
2023/07/01 09:29:48;;;;;;;6.72;4.55;;;18.00;99.90;;;;;;4886623;29;20423;-71
2023/07/01 09:32:29;;;;;;;6.05;4.50;;;18.00;99.90;;;;;;4885481;29;20454;-71
2023/07/01 09:34:57;;;;;;;5.80;4.57;;;18.00;99.90;;;;;;4884564;29;20060;-72
2023/07/01 09:37:26;;;;;;;6.40;4.45;;;18.00;99.90;;;;;;4892791;29;20056;-72
2023/07/01 09:39:52;;;;;;;4.85;3.88;;;18.10;99.90;;;;;;4899463;29;20049;-72
2023/07/01 09:42:18;;;;;;;5.47;4.07;;;18.10;99.90;;;;;;4912652;29;20056;-71
2023/07/01 09:45:03;;;;;;;5.40;3.55;;;18.10;99.90;;;;;;4918251;29;20044;-71
2023/07/01 09:47:29;;;;;;;5.25;4.03;;;18.10;99.90;;;;;;4918210;29;20198;-72
2023/07/01 09:49:54;;;;;;;4.85;3.85;;;18.10;99.90;;;;;;4917791;29;20087;-72
2023/07/01 09:52:34;;;;;;;5.43;3.83;;;18.10;99.90;;;;;;4917662;29;20058;-72
2023/07/01 09:55:02;;;;;;;4.82;4.00;;;18.10;99.90;;;;;;4901024;29;20056;-72
2023/07/01 09:57:28;;;;;;;5.63;3.95;;;18.10;99.90;;;;;;4917802;29;20408;-73
2023/07/01 09:59:54;;;;;;;5.88;3.97;;;18.10;99.90;;;;;;4900903;29;20095;-73
2023/07/01 10:02:20;;;;;;;4.20;3.63;;;18.20;99.90;;;;;;4900879;29;20094;-74
2023/07/01 10:04:46;;;;;;;6.93;4.00;;;18.20;99.90;;;;;;4894831;29;20136;-74
2023/07/01 10:07:12;;;;;;;4.30;3.65;;;18.20;99.90;;;;;;4872174;29;20127;-74
2023/07/01 10:09:48;;;;;;;5.63;3.95;;;18.20;99.90;;;;;;4871160;29;20083;-74
2023/07/01 10:12:19;;;;;;;4.20;3.45;;;18.20;99.90;;;;;;4888499;29;20386;-74
2023/07/01 10:14:48;;;;;;;7.18;4.43;;;18.30;99.90;;;;;;4888229;29;20041;-74
2023/07/01 10:17:18;;;;;;;4.65;4.10;;;18.30;99.90;;;;;;4871280;29;20059;-74
2023/07/01 10:19:47;;;;;;;5.40;4.00;;;18.30;99.90;;;;;;4872666;29;20053;-73
2023/07/01 10:22:30;;;;;;;5.38;4.40;;;18.30;99.90;;;;;;4889213;29;20057;-73
2023/07/01 10:25:03;;;;;;;5.85;4.05;;;18.30;99.90;;;;;;4889489;29;20045;-74
2023/07/01 10:27:41;;;;;;;5.78;3.85;;;18.30;99.90;;;;;;4888608;29;20481;-74
2023/07/01 10:30:09;;;;;;;4.88;3.97;;;18.40;99.90;;;;;;4893271;29;20083;-73
2023/07/01 10:32:35;;;;;;;27.25;6.13;;;18.40;99.90;;;;;;4889836;29;20060;-74
2023/07/01 10:35:03;;;;;;;6.60;4.30;;;18.50;99.90;;;;;;4881694;29;20724;-75
2023/07/01 10:37:33;;;;;;;7.10;3.75;;;18.50;99.90;;;;;;4898477;29;20057;-77
2023/07/01 10:40:07;;;;;;;9.32;4.30;;;18.50;99.90;;;;;;4898307;29;20147;-80
2023/07/01 10:42:34;;;;;;;6.85;3.72;;;18.60;99.90;;;;;;4881469;29;20088;-71
2023/07/01 10:45:12;;;;;;;4.60;3.75;;;18.70;99.90;;;;;;4907864;29;20059;-76
2023/07/01 10:47:45;;;;;;;5.90;4.05;;;18.70;99.90;;;;;;4915548;29;20051;-76
2023/07/01 10:50:15;;;;;;;4.40;3.92;;;18.60;99.90;;;;;;4916332;29;20052;-76
2023/07/01 10:52:56;;;;;;;4.50;3.97;;;18.70;99.90;;;;;;4916551;29;20060;-76
2023/07/01 10:55:38;;;;;;;5.03;4.00;;;18.70;99.90;;;;;;4916633;29;20059;-75
2023/07/01 10:58:21;;;;;;;4.78;3.55;;;18.70;99.90;;;;;;4899385;29;20056;-75
2023/07/01 11:00:54;;;;;;;4.80;3.65;;;18.70;99.90;;;;;;4912585;29;20048;-75
2023/07/01 11:03:35;;;;;;;5.32;3.75;;;18.70;99.90;;;;;;4916662;29;20052;-73
2023/07/01 11:06:02;;;;;;;4.07;3.67;;;18.80;99.90;;;;;;4893195;29;20059;-72
2023/07/01 11:08:29;;;;;;;6.18;3.58;;;18.80;99.90;;;;;;4897597;29;20797;-72
2023/07/01 11:10:56;;;;;;;6.65;3.58;;;18.80;99.90;;;;;;4880707;29;20095;-72
2023/07/01 11:13:22;;;;;;;6.65;3.72;;;18.70;99.90;;;;;;4898171;29;20055;-72
2023/07/01 11:16:08;;;;;;;6.03;3.75;;;18.80;99.90;;;;;;4897409;29;20131;-72
2023/07/01 11:18:40;;;;;;;4.10;3.30;;;18.80;99.90;;;;;;4897604;29;20503;-72
2023/07/01 11:21:08;;;;;;;5.20;3.60;;;18.80;99.90;;;;;;4897725;29;20060;-72
2023/07/01 11:23:34;;;;;;;3.38;3.03;;;18.80;99.90;;;;;;4897331;29;20064;-72
2023/07/01 11:26:00;;;;;;;6.00;3.63;;;18.80;99.90;;;;;;4897277;29;20060;-72
2023/07/01 11:28:36;;;;;;;3.65;3.35;;;18.80;99.90;;;;;;4897247;29;20067;-71
2023/07/01 11:31:20;;;;;;;3.90;3.28;;;19.00;99.90;;;;;;4897319;29;20056;-72
2023/07/01 11:33:54;;;;;;;4.75;3.85;;;19.00;99.90;;;;;;4897457;29;20068;-72
2023/07/01 11:36:43;;;;;;;4.10;3.35;;;19.00;99.90;;;;;;4892393;29;20049;-72
2023/07/01 11:39:14;;;;;;;4.63;3.45;;;19.10;99.90;;;;;;4897064;29;20500;-72
2023/07/01 11:42:03;;;;;;;4.32;3.75;;;19.10;99.90;;;;;;4872756;29;20060;-72
2023/07/01 11:44:35;;;;;;;5.05;4.20;;;19.10;99.90;;;;;;4878094;29;20053;-72
2023/07/01 11:47:01;;;;;;;5.57;3.88;;;19.20;99.90;;;;;;4878549;29;20053;-74
2023/07/01 11:49:31;;;;;;;6.13;4.45;;;19.30;99.90;;;;;;4868658;29;20708;-75
2023/07/01 11:52:00;;;;;;;5.20;3.97;;;19.40;99.90;;;;;;4897129;29;20091;-76
2023/07/01 11:54:45;;;;;;;5.95;4.22;;;19.50;99.90;;;;;;4897095;29;20064;-76
2023/07/01 11:57:20;;;;;;;10.75;4.13;;;19.60;99.90;;;;;;4896982;29;20505;-76
2023/07/01 11:59:48;;;;;;;10.35;4.28;;;19.60;99.90;;;;;;4896744;29;20494;-76
2023/07/01 12:02:15;;;;;;;6.90;4.05;;;19.60;99.90;;;;;;4896604;29;20068;-76
2023/07/01 12:04:40;;;;;;;6.93;4.47;;;19.60;99.90;;;;;;4896741;29;20051;-75
2023/07/01 12:07:15;;;;;;;5.60;4.18;;;19.60;99.90;;;;;;4896654;29;20420;-75
2023/07/01 12:09:44;;;;;;;6.03;4.45;;;19.60;99.90;;;;;;4896487;29;20096;-75
2023/07/01 12:12:14;;;;;;;6.82;4.68;;;19.50;99.90;;;;;;4896368;29;20053;-75
2023/07/01 12:14:40;;;;;;;6.18;4.18;;;19.50;99.90;;;;;;4884791;29;20048;-75
2023/07/01 12:17:06;;;;;;;9.23;5.32;;;19.50;99.90;;;;;;4877869;29;20048;-75
2023/07/01 12:19:32;;;;;;;9.68;4.53;;;19.50;99.90;;;;;;4877765;29;20041;-74
2023/07/01 12:21:59;;;;;;;9.35;5.20;;;19.50;99.90;;;;;;4861265;29;20061;-77
2023/07/01 12:24:29;;;;;;;9.07;4.78;;;19.50;99.90;;;;;;4878583;29;20057;-78
2023/07/01 12:27:03;;;;;;;12.80;5.30;;;19.50;99.90;;;;;;4878609;29;20424;-77
2023/07/01 12:29:29;;;;;;;7.72;4.68;;;19.50;99.90;;;;;;4878443;29;20103;-77
2023/07/01 12:31:57;;;;;;;8.20;4.60;;;19.40;99.90;;;;;;4861701;29;20064;-78
2023/07/01 12:34:24;;;;;;;10.57;4.72;;;19.40;99.90;;;;;;4878522;29;20045;-75
2023/07/01 12:36:50;;;;;;;7.70;4.82;;;19.40;99.90;;;;;;4878167;29;20169;-76
2023/07/01 12:39:17;;;;;;;5.25;3.97;;;19.50;99.90;;;;;;4878213;29;20059;-77
2023/07/01 12:41:47;;;;;;;11.23;4.18;;;19.50;99.90;;;;;;4878136;29;20394;-75
2023/07/01 12:44:14;;;;;;;4.53;3.65;;;19.50;99.90;;;;;;4878212;29;20472;-75
2023/07/01 12:46:43;;;;;;;8.77;3.80;;;19.50;99.90;;;;;;4877600;29;20117;-73
2023/07/01 12:49:13;;;;;;;9.48;3.38;;;19.50;99.90;;;;;;4877219;29;20048;-74